Fesco Vladimir — 5BSL2 — position and weather

sailwx.info

Track history (hours):
 
Tides and Currents Weather Stations Pressure Air Temp Water Temp Dewpoint Dewpoint Depression Visibility Wind Speed Wind Dir Waves Ship Positions

Fesco Vladimir

Last reported at 2016-Feb-06 18:28 UTC. Time now 2016-Feb-06 18:39 UTC.
Position N 59°56' E 029°42'.

Length 184 m; draft 9.2 m.

Type: Ship (hazmat cat A). MMSI: 209777000.

Date/timePositionNaut miles runAvg speedWind from/ knotsBaromVisibWave heightAir tempDewpointWater temp
2016-Feb-06 18:28N 59°56' E 029°42'0 0.0
2016-Feb-06 17:32N 59°56' E 029°42'0 0.0
2016-Feb-06 16:29N 59°56' E 029°42'0 0.0
2016-Feb-06 15:32N 59°56' E 029°42'0 0.0
2016-Feb-06 14:29N 59°56' E 029°42'0 0.0
2016-Feb-06 13:32N 59°56' E 029°42'0 0.0
2016-Feb-06 12:32N 59°56' E 029°42'0 0.0
2016-Feb-06 11:32N 59°56' E 029°42'0 0.5
2016-Feb-06 10:32N 59°56' E 029°42'3 2.9
2016-Feb-06 09:33N 59°58' E 029°47'1111.4
2016-Feb-06 08:33N 59°54' E 030°08'3 2.7
2016-Feb-06 07:32N 59°52' E 030°12'0 0.0
2016-Feb-06 06:32N 59°52' E 030°12'0 0.0
2016-Feb-06 05:32N 59°52' E 030°12'0 0.0
2016-Feb-06 04:32N 59°52' E 030°12'0 0.0
2016-Feb-06 03:32N 59°52' E 030°12'0 0.0
2016-Feb-06 02:32N 59°52' E 030°12'0 0.0
2016-Feb-06 01:32N 59°52' E 030°12'0 0.0
2016-Feb-06 00:32N 59°52' E 030°12'0 0.0
2016-Feb-05 23:32N 59°52' E 030°12'0 0.0
2016-Feb-05 22:32N 59°52' E 030°12'0 0.0
2016-Feb-05 21:32N 59°52' E 030°12'0 0.0
2016-Feb-05 20:32N 59°52' E 030°12'0 0.0
2016-Feb-05 19:32N 59°52' E 030°12'0 0.0
2016-Feb-05 18:32N 59°52' E 030°12'0 0.0
2016-Feb-05 17:29N 59°52' E 030°12'0 0.0
2016-Feb-05 16:32N 59°52' E 030°12'0 0.0
2016-Feb-05 15:32N 59°52' E 030°12'0 0.0
2016-Feb-05 14:32N 59°52' E 030°12'0 0.0
2016-Feb-05 13:31N 59°52' E 030°12'0 0.0
2016-Feb-05 12:33N 59°52' E 030°12'0 0.0
2016-Feb-05 11:33N 59°52' E 030°12'0 0.0
2016-Feb-05 10:33N 59°52' E 030°12'0 0.0
2016-Feb-05 09:33N 59°52' E 030°12'0 0.0
2016-Feb-05 08:33N 59°52' E 030°12'0 0.0
2016-Feb-05 07:33N 59°52' E 030°12'1 0.7
2016-Feb-05 06:33N 59°53' E 030°12'0 0.1
2016-Feb-05 05:33N 59°53' E 030°12'0 0.0
2016-Feb-05 04:33N 59°53' E 030°12'0 0.0
2016-Feb-05 03:33N 59°53' E 030°12'0 0.0
2016-Feb-05 02:33N 59°53' E 030°12'0 0.0
2016-Feb-05 01:33N 59°53' E 030°12'0 0.0
2016-Feb-05 00:33N 59°53' E 030°12'0 0.0
2016-Feb-04 23:33N 59°53' E 030°12'0 0.0
2016-Feb-04 22:33N 59°53' E 030°12'0 0.0
2016-Feb-04 21:33N 59°53' E 030°12'0 0.0
2016-Feb-04 20:33N 59°53' E 030°12'0 0.0
2016-Feb-04 19:31N 59°53' E 030°12'0 0.0
2016-Feb-04 18:31N 59°53' E 030°12'0 0.0
2016-Feb-04 17:31N 59°53' E 030°12'0 0.0
2016-Feb-04 16:31N 59°53' E 030°12'0 0.0
2016-Feb-04 15:33N 59°53' E 030°12'1 0.7
2016-Feb-04 14:33N 59°53' E 030°11'10 9.5
2016-Feb-04 13:33N 59°57' E 029°53'1010.1
2016-Feb-04 12:33N 60°01' E 029°34'10 9.6
2016-Feb-04 11:33N 60°02' E 029°15'1717.1
2016-Feb-04 10:33N 60°02' E 028°41'1211.6
2016-Feb-04 09:33N 59°52' E 028°29'1111.1
2016-Feb-04 08:33N 59°41' E 028°24'1 0.8
2016-Feb-04 07:33N 59°40' E 028°24'0 0.0
2016-Feb-04 06:33N 59°40' E 028°24'0 0.0
2016-Feb-04 05:33N 59°40' E 028°24'0 0.0
2016-Feb-04 04:33N 59°40' E 028°24'0 0.0
2016-Feb-04 03:33N 59°40' E 028°24'0 0.0
2016-Feb-04 02:33N 59°40' E 028°24'0 0.0
2016-Feb-04 01:33N 59°40' E 028°24'0 0.0
2016-Feb-04 00:24N 59°40' E 028°24'0 0.0
2016-Feb-03 23:27N 59°40' E 028°24'0 0.0
2016-Feb-03 22:27N 59°40' E 028°24'0 0.0
2016-Feb-03 21:27N 59°40' E 028°24'0 0.0
2016-Feb-03 20:30N 59°40' E 028°24'0 0.0
2016-Feb-03 19:30N 59°40' E 028°24'0 0.0
2016-Feb-03 18:30N 59°40' E 028°24'2 1.9
2016-Feb-03 17:34N 59°42' E 028°24'1212.3
2016-Feb-03 16:33N 59°54' E 028°31'9 9.5
2016-Feb-03 15:34N 60°03' E 028°25'1414.4
2016-Feb-03 14:33N 60°09' E 027°59'1414.0
2016-Feb-03 13:33N 60°06' E 027°32'1615.3
2016-Feb-03 12:32N 59°58' E 027°05'1414.8
2016-Feb-03 11:34N 59°59' E 026°36'6115.2
2016-Feb-03 07:34N 59°44' E 024°39'37516.8
2016-Feb-02 09:15N 55°42' E 015°42'1217.7
2016-Feb-02 08:33N 55°36' E 015°23'1717.6
2016-Feb-02 07:34N 55°28' E 014°56'1616.4
2016-Feb-02 06:34N 55°18' E 014°33'1615.7
2016-Feb-02 05:33N 55°05' E 014°17'1615.5
2016-Feb-02 04:33N 54°58' E 013°53'1616.4
2016-Feb-02 03:33N 54°53' E 013°26'3616.5
2016-Feb-02 01:23N 54°39' E 012°29'1316.1
2016-Feb-02 00:33N 54°28' E 012°15'1615.8
2016-Feb-01 23:33N 54°24' E 011°48'1817.7
2016-Feb-01 22:34N 54°32' E 011°21'1717.3
2016-Feb-01 21:34N 54°35' E 010°52'1616.4
2016-Feb-01 20:34N 54°31' E 010°24'1212.0
2016-Feb-01 19:34N 54°22' E 010°10'1 1.1
2016-Feb-01 18:34N 54°22' E 010°08'4 4.5
2016-Feb-01 17:34N 54°21' E 010°01'5 4.9
2016-Feb-01 16:34N 54°22' E 009°52'6 6.0
2016-Feb-01 15:33N 54°19' E 009°43'6 6.3
2016-Feb-01 14:34N 54°14' E 009°36'5 4.6
2016-Feb-01 13:33N 54°11' E 009°30'14 6.3
2016-Feb-01 11:17N 53°59' E 009°17'3 4.4
2016-Feb-01 10:33N 53°57' E 009°14'3 2.6
2016-Feb-01 09:33N 53°55' E 009°11'2 2.2
2016-Feb-01 08:33N 53°53' E 009°08'1111.1
2016-Feb-01 07:33N 53°47' E 009°23'1413.7
2016-Feb-01 06:34N 53°36' E 009°36'1110.7
2016-Feb-01 05:33N 53°33' E 009°53'1 0.7
2016-Feb-01 04:31N 53°32' E 009°54'0 0.0
2016-Feb-01 03:31N 53°32' E 009°54'0 0.0
2016-Feb-01 02:31N 53°32' E 009°54'0 0.0
2016-Feb-01 01:31N 53°32' E 009°54'0 0.0
2016-Feb-01 00:31N 53°32' E 009°54'0 0.0
2016-Jan-31 23:31N 53°32' E 009°54'0 0.0
2016-Jan-31 22:31N 53°32' E 009°54'0 0.0
2016-Jan-31 21:31N 53°32' E 009°54'0 0.0
2016-Jan-31 20:31N 53°32' E 009°54'0 0.0
2016-Jan-31 19:31N 53°32' E 009°54'0 0.0
2016-Jan-31 18:31N 53°32' E 009°54'0 0.0
2016-Jan-31 17:31N 53°32' E 009°54'0 0.0
2016-Jan-31 16:31N 53°32' E 009°54'0 0.0
2016-Jan-31 15:31N 53°32' E 009°54'0 0.0
2016-Jan-31 14:31N 53°32' E 009°54'0 0.0
2016-Jan-31 13:31N 53°32' E 009°54'4 3.7
2016-Jan-31 12:33N 53°33' E 009°49'1212.1
2016-Jan-31 11:33N 53°39' E 009°31'1514.6
2016-Jan-31 10:34N 53°52' E 009°18'1010.5
2016-Jan-31 09:34N 53°51' E 009°00'1111.1
2016-Jan-31 08:33N 53°53' E 008°42'1312.8
2016-Jan-31 07:34N 53°59' E 008°22'1111.0
2016-Jan-31 06:34N 53°59' E 008°04'1110.7
2016-Jan-31 05:33N 53°57' E 007°46'1111.4
2016-Jan-31 04:33N 53°55' E 007°27'1211.7
2016-Jan-31 03:33N 53°52' E 007°07'1312.8
2016-Jan-31 02:33N 53°49' E 006°46'1313.3
2016-Jan-31 01:33N 53°46' E 006°24'1313.5
2016-Jan-31 00:34N 53°42' E 006°03'1414.0
2016-Jan-30 23:33N 53°37' E 005°41'1414.1
2016-Jan-30 22:33N 53°33' E 005°18'1514.6
2016-Jan-30 21:33N 53°27' E 004°55'1813.0
2016-Jan-30 20:12N 53°15' E 004°35'914.5
2016-Jan-30 19:33N 53°07' E 004°28'1515.2
2016-Jan-30 18:34N 52°53' E 004°15'1615.7
2016-Jan-30 17:33N 52°40' E 004°02'1414.6
2016-Jan-30 16:33N 52°26' E 003°53'1414.1
2016-Jan-30 15:33N 52°12' E 003°54'1110.8
2016-Jan-30 14:33N 52°01' E 003°57'4 3.9
2016-Jan-30 13:34N 51°59' E 004°02'0 0.0
2016-Jan-30 12:33N 51°59' E 004°02'0 0.0
2016-Jan-30 11:33N 51°59' E 004°02'0 0.0
2016-Jan-30 10:30N 51°59' E 004°02'0 0.0
2016-Jan-30 09:33N 51°59' E 004°02'0 0.0
2016-Jan-30 08:33N 51°59' E 004°02'0 0.0
2016-Jan-30 07:33N 51°59' E 004°02'0 0.0
2016-Jan-30 06:33N 51°59' E 004°02'0 0.0
2016-Jan-30 05:33N 51°59' E 004°02'0 0.0
2016-Jan-30 04:33N 51°59' E 004°02'0 0.0
2016-Jan-30 03:33N 51°59' E 004°02'0 0.0
2016-Jan-30 02:33N 51°59' E 004°02'0 0.0
2016-Jan-30 01:33N 51°59' E 004°02'0 0.0
2016-Jan-30 00:33N 51°59' E 004°02'0 0.0
2016-Jan-29 23:33N 51°59' E 004°02'0 0.0
2016-Jan-29 22:33N 51°59' E 004°02'0 0.0
2016-Jan-29 21:33N 51°59' E 004°02'0 0.0
2016-Jan-29 20:33N 51°59' E 004°02'0 0.0
2016-Jan-29 19:33N 51°59' E 004°02'0 0.0
2016-Jan-29 18:33N 51°59' E 004°02'0 0.0
2016-Jan-29 17:29N 51°59' E 004°02'0 0.0
2016-Jan-29 16:32N 51°59' E 004°02'0 0.0
2016-Jan-29 15:32N 51°59' E 004°02'0 0.0
2016-Jan-29 14:32N 51°59' E 004°02'0 0.0
2016-Jan-29 13:31N 51°59' E 004°02'2 2.0
2016-Jan-29 12:31N 51°58' E 004°04'0 0.0
2016-Jan-29 11:31N 51°57' E 004°04'0 0.0
2016-Jan-29 10:31N 51°58' E 004°04'0 0.0
2016-Jan-29 09:31N 51°58' E 004°04'0 0.0
2016-Jan-29 08:31N 51°58' E 004°04'0 0.0
2016-Jan-29 07:31N 51°58' E 004°04'0 0.0
2016-Jan-29 06:31N 51°58' E 004°04'0 0.0
2016-Jan-29 05:31N 51°58' E 004°04'0 0.0
2016-Jan-29 04:32N 51°58' E 004°04'0 0.0
2016-Jan-29 03:32N 51°58' E 004°04'0 0.0
2016-Jan-29 02:32N 51°58' E 004°04'0 0.0
2016-Jan-29 01:32N 51°58' E 004°04'1 0.6
2016-Jan-29 00:33N 51°57' E 004°04'0 0.1
2016-Jan-28 23:33N 51°57' E 004°04'0 0.0
2016-Jan-28 22:33N 51°57' E 004°04'0 0.0
2016-Jan-28 21:33N 51°57' E 004°04'0 0.0
2016-Jan-28 20:33N 51°57' E 004°04'0 0.0
2016-Jan-28 19:33N 51°57' E 004°04'0 0.0
2016-Jan-28 18:30N 51°57' E 004°04'0 0.0
2016-Jan-28 17:33N 51°57' E 004°04'0 0.0
2016-Jan-28 16:33N 51°57' E 004°04'0 0.0
2016-Jan-28 15:33N 51°57' E 004°04'0 0.0
2016-Jan-28 14:33N 51°57' E 004°04'0 0.0
2016-Jan-28 13:33N 51°57' E 004°04'0 0.0
2016-Jan-28 12:33N 51°57' E 004°04'0 0.0
2016-Jan-28 11:33N 51°57' E 004°04'0 0.0
2016-Jan-28 10:33N 51°57' E 004°04'0 0.0
2016-Jan-28 09:33N 51°57' E 004°04'0 0.0
2016-Jan-28 08:33N 51°57' E 004°04'0 0.0
2016-Jan-28 07:33N 51°57' E 004°04'0 0.3
2016-Jan-28 06:34N 51°57' E 004°05'9 8.6
2016-Jan-28 05:33N 52°00' E 003°52'7 6.8
2016-Jan-28 04:33N 52°06' E 003°47'9 9.3
2016-Jan-28 03:33N 52°16' E 003°46'1211.7
2016-Jan-28 02:33N 52°27' E 003°50'4613.1
2016-Jan-27 23:05N 53°09' E 004°21'3614.4
2016-Jan-27 20:33N 53°34' E 005°05'1414.3
2016-Jan-27 19:33N 53°39' E 005°28'1413.7
2016-Jan-27 18:33N 53°43' E 005°50'  
Track history (hours):
 
Tides and Currents Weather Stations Pressure Air Temp Water Temp Dewpoint Dewpoint Depression Visibility Wind Speed Wind Dir Waves Ship Positions

Fesco Vladimir

Last reported at 2016-Feb-06 18:28 UTC. Time now 2016-Feb-06 18:39 UTC.
Position N 59°56' E 029°42'.

Length 184 m; draft 9.2 m.

Type: Ship (hazmat cat A). MMSI: 209777000.

Date/timePositionNaut miles runAvg speedWind from/ knotsBaromVisibWave heightAir tempDewpointWater temp
2016-Feb-06 18:28N 59°56' E 029°42'0 0.0
2016-Feb-06 17:32N 59°56' E 029°42'0 0.0
2016-Feb-06 16:29N 59°56' E 029°42'0 0.0
2016-Feb-06 15:32N 59°56' E 029°42'0 0.0
2016-Feb-06 14:29N 59°56' E 029°42'0 0.0
2016-Feb-06 13:32N 59°56' E 029°42'0 0.0
2016-Feb-06 12:32N 59°56' E 029°42'0 0.0
2016-Feb-06 11:32N 59°56' E 029°42'0 0.5
2016-Feb-06 10:32N 59°56' E 029°42'3 2.9
2016-Feb-06 09:33N 59°58' E 029°47'1111.4
2016-Feb-06 08:33N 59°54' E 030°08'3 2.7
2016-Feb-06 07:32N 59°52' E 030°12'0 0.0
2016-Feb-06 06:32N 59°52' E 030°12'0 0.0
2016-Feb-06 05:32N 59°52' E 030°12'0 0.0
2016-Feb-06 04:32N 59°52' E 030°12'0 0.0
2016-Feb-06 03:32N 59°52' E 030°12'0 0.0
2016-Feb-06 02:32N 59°52' E 030°12'0 0.0
2016-Feb-06 01:32N 59°52' E 030°12'0 0.0
2016-Feb-06 00:32N 59°52' E 030°12'0 0.0
2016-Feb-05 23:32N 59°52' E 030°12'0 0.0
2016-Feb-05 22:32N 59°52' E 030°12'0 0.0
2016-Feb-05 21:32N 59°52' E 030°12'0 0.0
2016-Feb-05 20:32N 59°52' E 030°12'0 0.0
2016-Feb-05 19:32N 59°52' E 030°12'0 0.0
2016-Feb-05 18:32N 59°52' E 030°12'0 0.0
2016-Feb-05 17:29N 59°52' E 030°12'0 0.0
2016-Feb-05 16:32N 59°52' E 030°12'0 0.0
2016-Feb-05 15:32N 59°52' E 030°12'0 0.0
2016-Feb-05 14:32N 59°52' E 030°12'0 0.0
2016-Feb-05 13:31N 59°52' E 030°12'0 0.0
2016-Feb-05 12:33N 59°52' E 030°12'0 0.0
2016-Feb-05 11:33N 59°52' E 030°12'0 0.0
2016-Feb-05 10:33N 59°52' E 030°12'0 0.0
2016-Feb-05 09:33N 59°52' E 030°12'0 0.0
2016-Feb-05 08:33N 59°52' E 030°12'0 0.0
2016-Feb-05 07:33N 59°52' E 030°12'1 0.7
2016-Feb-05 06:33N 59°53' E 030°12'0 0.1
2016-Feb-05 05:33N 59°53' E 030°12'0 0.0
2016-Feb-05 04:33N 59°53' E 030°12'0 0.0
2016-Feb-05 03:33N 59°53' E 030°12'0 0.0
2016-Feb-05 02:33N 59°53' E 030°12'0 0.0
2016-Feb-05 01:33N 59°53' E 030°12'0 0.0
2016-Feb-05 00:33N 59°53' E 030°12'0 0.0
2016-Feb-04 23:33N 59°53' E 030°12'0 0.0
2016-Feb-04 22:33N 59°53' E 030°12'0 0.0
2016-Feb-04 21:33N 59°53' E 030°12'0 0.0
2016-Feb-04 20:33N 59°53' E 030°12'0 0.0
2016-Feb-04 19:31N 59°53' E 030°12'0 0.0
2016-Feb-04 18:31N 59°53' E 030°12'0 0.0
2016-Feb-04 17:31N 59°53' E 030°12'0 0.0
2016-Feb-04 16:31N 59°53' E 030°12'0 0.0
2016-Feb-04 15:33N 59°53' E 030°12'1 0.7
2016-Feb-04 14:33N 59°53' E 030°11'10 9.5
2016-Feb-04 13:33N 59°57' E 029°53'1010.1
2016-Feb-04 12:33N 60°01' E 029°34'10 9.6
2016-Feb-04 11:33N 60°02' E 029°15'1717.1
2016-Feb-04 10:33N 60°02' E 028°41'1211.6
2016-Feb-04 09:33N 59°52' E 028°29'1111.1
2016-Feb-04 08:33N 59°41' E 028°24'1 0.8
2016-Feb-04 07:33N 59°40' E 028°24'0 0.0
2016-Feb-04 06:33N 59°40' E 028°24'0 0.0
2016-Feb-04 05:33N 59°40' E 028°24'0 0.0
2016-Feb-04 04:33N 59°40' E 028°24'0 0.0
2016-Feb-04 03:33N 59°40' E 028°24'0 0.0
2016-Feb-04 02:33N 59°40' E 028°24'0 0.0
2016-Feb-04 01:33N 59°40' E 028°24'0 0.0
2016-Feb-04 00:24N 59°40' E 028°24'0 0.0
2016-Feb-03 23:27N 59°40' E 028°24'0 0.0
2016-Feb-03 22:27N 59°40' E 028°24'0 0.0
2016-Feb-03 21:27N 59°40' E 028°24'0 0.0
2016-Feb-03 20:30N 59°40' E 028°24'0 0.0
2016-Feb-03 19:30N 59°40' E 028°24'0 0.0
2016-Feb-03 18:30N 59°40' E 028°24'2 1.9
2016-Feb-03 17:34N 59°42' E 028°24'1212.3
2016-Feb-03 16:33N 59°54' E 028°31'9 9.5
2016-Feb-03 15:34N 60°03' E 028°25'1414.4
2016-Feb-03 14:33N 60°09' E 027°59'1414.0
2016-Feb-03 13:33N 60°06' E 027°32'1615.3
2016-Feb-03 12:32N 59°58' E 027°05'1414.8
2016-Feb-03 11:34N 59°59' E 026°36'6115.2
2016-Feb-03 07:34N 59°44' E 024°39'37516.8
2016-Feb-02 09:15N 55°42' E 015°42'1217.7
2016-Feb-02 08:33N 55°36' E 015°23'1717.6
2016-Feb-02 07:34N 55°28' E 014°56'1616.4
2016-Feb-02 06:34N 55°18' E 014°33'1615.7
2016-Feb-02 05:33N 55°05' E 014°17'1615.5
2016-Feb-02 04:33N 54°58' E 013°53'1616.4
2016-Feb-02 03:33N 54°53' E 013°26'3616.5
2016-Feb-02 01:23N 54°39' E 012°29'1316.1
2016-Feb-02 00:33N 54°28' E 012°15'1615.8
2016-Feb-01 23:33N 54°24' E 011°48'1817.7
2016-Feb-01 22:34N 54°32' E 011°21'1717.3
2016-Feb-01 21:34N 54°35' E 010°52'1616.4
2016-Feb-01 20:34N 54°31' E 010°24'1212.0
2016-Feb-01 19:34N 54°22' E 010°10'1 1.1
2016-Feb-01 18:34N 54°22' E 010°08'4 4.5
2016-Feb-01 17:34N 54°21' E 010°01'5 4.9
2016-Feb-01 16:34N 54°22' E 009°52'6 6.0
2016-Feb-01 15:33N 54°19' E 009°43'6 6.3
2016-Feb-01 14:34N 54°14' E 009°36'5 4.6
2016-Feb-01 13:33N 54°11' E 009°30'14 6.3
2016-Feb-01 11:17N 53°59' E 009°17'3 4.4
2016-Feb-01 10:33N 53°57' E 009°14'3 2.6
2016-Feb-01 09:33N 53°55' E 009°11'2 2.2
2016-Feb-01 08:33N 53°53' E 009°08'1111.1
2016-Feb-01 07:33N 53°47' E 009°23'1413.7
2016-Feb-01 06:34N 53°36' E 009°36'1110.7
2016-Feb-01 05:33N 53°33' E 009°53'1 0.7
2016-Feb-01 04:31N 53°32' E 009°54'0 0.0
2016-Feb-01 03:31N 53°32' E 009°54'0 0.0
2016-Feb-01 02:31N 53°32' E 009°54'0 0.0
2016-Feb-01 01:31N 53°32' E 009°54'0 0.0
2016-Feb-01 00:31N 53°32' E 009°54'0 0.0
2016-Jan-31 23:31N 53°32' E 009°54'0 0.0
2016-Jan-31 22:31N 53°32' E 009°54'0 0.0
2016-Jan-31 21:31N 53°32' E 009°54'0 0.0
2016-Jan-31 20:31N 53°32' E 009°54'0 0.0
2016-Jan-31 19:31N 53°32' E 009°54'0 0.0
2016-Jan-31 18:31N 53°32' E 009°54'0 0.0
2016-Jan-31 17:31N 53°32' E 009°54'0 0.0
2016-Jan-31 16:31N 53°32' E 009°54'0 0.0
2016-Jan-31 15:31N 53°32' E 009°54'0 0.0
2016-Jan-31 14:31N 53°32' E 009°54'0 0.0
2016-Jan-31 13:31N 53°32' E 009°54'4 3.7
2016-Jan-31 12:33N 53°33' E 009°49'1212.1
2016-Jan-31 11:33N 53°39' E 009°31'1514.6
2016-Jan-31 10:34N 53°52' E 009°18'1010.5
2016-Jan-31 09:34N 53°51' E 009°00'1111.1
2016-Jan-31 08:33N 53°53' E 008°42'1312.8
2016-Jan-31 07:34N 53°59' E 008°22'1111.0
2016-Jan-31 06:34N 53°59' E 008°04'1110.7
2016-Jan-31 05:33N 53°57' E 007°46'1111.4
2016-Jan-31 04:33N 53°55' E 007°27'1211.7
2016-Jan-31 03:33N 53°52' E 007°07'1312.8
2016-Jan-31 02:33N 53°49' E 006°46'1313.3
2016-Jan-31 01:33N 53°46' E 006°24'1313.5
2016-Jan-31 00:34N 53°42' E 006°03'1414.0
2016-Jan-30 23:33N 53°37' E 005°41'1414.1
2016-Jan-30 22:33N 53°33' E 005°18'1514.6
2016-Jan-30 21:33N 53°27' E 004°55'1813.0
2016-Jan-30 20:12N 53°15' E 004°35'914.5
2016-Jan-30 19:33N 53°07' E 004°28'1515.2
2016-Jan-30 18:34N 52°53' E 004°15'1615.7
2016-Jan-30 17:33N 52°40' E 004°02'1414.6
2016-Jan-30 16:33N 52°26' E 003°53'1414.1
2016-Jan-30 15:33N 52°12' E 003°54'1110.8
2016-Jan-30 14:33N 52°01' E 003°57'4 3.9
2016-Jan-30 13:34N 51°59' E 004°02'0 0.0
2016-Jan-30 12:33N 51°59' E 004°02'0 0.0
2016-Jan-30 11:33N 51°59' E 004°02'0 0.0
2016-Jan-30 10:30N 51°59' E 004°02'0 0.0
2016-Jan-30 09:33N 51°59' E 004°02'0 0.0
2016-Jan-30 08:33N 51°59' E 004°02'0 0.0
2016-Jan-30 07:33N 51°59' E 004°02'0 0.0
2016-Jan-30 06:33N 51°59' E 004°02'0 0.0
2016-Jan-30 05:33N 51°59' E 004°02'0 0.0
2016-Jan-30 04:33N 51°59' E 004°02'0 0.0
2016-Jan-30 03:33N 51°59' E 004°02'0 0.0
2016-Jan-30 02:33N 51°59' E 004°02'0 0.0
2016-Jan-30 01:33N 51°59' E 004°02'0 0.0
2016-Jan-30 00:33N 51°59' E 004°02'0 0.0
2016-Jan-29 23:33N 51°59' E 004°02'0 0.0
2016-Jan-29 22:33N 51°59' E 004°02'0 0.0
2016-Jan-29 21:33N 51°59' E 004°02'0 0.0
2016-Jan-29 20:33N 51°59' E 004°02'0 0.0
2016-Jan-29 19:33N 51°59' E 004°02'0 0.0
2016-Jan-29 18:33N 51°59' E 004°02'0 0.0
2016-Jan-29 17:29N 51°59' E 004°02'0 0.0
2016-Jan-29 16:32N 51°59' E 004°02'0 0.0
2016-Jan-29 15:32N 51°59' E 004°02'0 0.0
2016-Jan-29 14:32N 51°59' E 004°02'0 0.0
2016-Jan-29 13:31N 51°59' E 004°02'2 2.0
2016-Jan-29 12:31N 51°58' E 004°04'0 0.0
2016-Jan-29 11:31N 51°57' E 004°04'0 0.0
2016-Jan-29 10:31N 51°58' E 004°04'0 0.0
2016-Jan-29 09:31N 51°58' E 004°04'0 0.0
2016-Jan-29 08:31N 51°58' E 004°04'0 0.0
2016-Jan-29 07:31N 51°58' E 004°04'0 0.0
2016-Jan-29 06:31N 51°58' E 004°04'0 0.0
2016-Jan-29 05:31N 51°58' E 004°04'0 0.0
2016-Jan-29 04:32N 51°58' E 004°04'0 0.0
2016-Jan-29 03:32N 51°58' E 004°04'0 0.0
2016-Jan-29 02:32N 51°58' E 004°04'0 0.0
2016-Jan-29 01:32N 51°58' E 004°04'1 0.6
2016-Jan-29 00:33N 51°57' E 004°04'0 0.1
2016-Jan-28 23:33N 51°57' E 004°04'0 0.0
2016-Jan-28 22:33N 51°57' E 004°04'0 0.0
2016-Jan-28 21:33N 51°57' E 004°04'0 0.0
2016-Jan-28 20:33N 51°57' E 004°04'0 0.0
2016-Jan-28 19:33N 51°57' E 004°04'0 0.0
2016-Jan-28 18:30N 51°57' E 004°04'0 0.0
2016-Jan-28 17:33N 51°57' E 004°04'0 0.0
2016-Jan-28 16:33N 51°57' E 004°04'0 0.0
2016-Jan-28 15:33N 51°57' E 004°04'0 0.0
2016-Jan-28 14:33N 51°57' E 004°04'0 0.0
2016-Jan-28 13:33N 51°57' E 004°04'0 0.0
2016-Jan-28 12:33N 51°57' E 004°04'0 0.0
2016-Jan-28 11:33N 51°57' E 004°04'0 0.0
2016-Jan-28 10:33N 51°57' E 004°04'0 0.0
2016-Jan-28 09:33N 51°57' E 004°04'0 0.0
2016-Jan-28 08:33N 51°57' E 004°04'0 0.0
2016-Jan-28 07:33N 51°57' E 004°04'0 0.3
2016-Jan-28 06:34N 51°57' E 004°05'9 8.6
2016-Jan-28 05:33N 52°00' E 003°52'7 6.8
2016-Jan-28 04:33N 52°06' E 003°47'9 9.3
2016-Jan-28 03:33N 52°16' E 003°46'1211.7
2016-Jan-28 02:33N 52°27' E 003°50'4613.1
2016-Jan-27 23:05N 53°09' E 004°21'3614.4
2016-Jan-27 20:33N 53°34' E 005°05'1414.3
2016-Jan-27 19:33N 53°39' E 005°28'1413.7
2016-Jan-27 18:33N 53°43' E 005°50'  

Dump ship's entire track history